Kakusui Maru — JD4129 — position and weather

sailwx.info

Track history (hours):
 
Tides and Currents Weather Stations Pressure Air Temp Water Temp Dewpoint Dewpoint Depression Visibility Wind Speed Wind Dir Waves Ship Positions

Kakusui Maru

Last reported at 2017-Nov-25 05:30 UTC. Time now 2017-Nov-25 05:55 UTC.
Position N 34°43' E 135°18'.

Length 64 m; draft 4 m.

Type: Tanker. MMSI: 431009016.

Date/timePositionNaut miles runAvg speedWind from/ knotsBaromVisibWave heightAir tempDewpointWater temp
2017-Nov-25 05:30N 34°43' E 135°18'0 0.0
2017-Nov-25 05:00N 34°43' E 135°18'0 0.0
2017-Nov-25 04:30N 34°43' E 135°18'0 0.0
2017-Nov-25 04:00N 34°43' E 135°18'0 0.0
2017-Nov-25 03:30N 34°43' E 135°18'0 0.0
2017-Nov-25 03:00N 34°43' E 135°18'1 1.4
2017-Nov-25 02:30N 34°42' E 135°18'611.2
2017-Nov-25 02:00N 34°37' E 135°18'611.8
2017-Nov-25 01:28N 34°31' E 135°14'1812.1
2017-Nov-25 00:01N 34°16' E 135°03'112.3
2017-Nov-24 23:57N 34°15' E 135°03'511.8
2017-Nov-24 23:30N 34°10' E 135°03'  
2017-Nov-20 00:30N 35°24' E 139°37'0 0.0
2017-Nov-20 00:00N 35°24' E 139°37'0 0.0
2017-Nov-19 23:30N 35°24' E 139°37'0 0.0
2017-Nov-19 23:00N 35°24' E 139°37'0 0.0
2017-Nov-19 22:30N 35°24' E 139°37'0 0.0
2017-Nov-19 22:00N 35°24' E 139°37'0 0.0
2017-Nov-19 21:30N 35°24' E 139°37'0 0.0
2017-Nov-19 21:00N 35°24' E 139°37'0 0.0
2017-Nov-19 20:30N 35°24' E 139°37'0 0.0
2017-Nov-19 20:00N 35°24' E 139°37'0 0.0
2017-Nov-19 19:30N 35°24' E 139°37'0 0.0
2017-Nov-19 19:00N 35°24' E 139°37'0 0.0
2017-Nov-19 18:30N 35°24' E 139°37'0 0.0
2017-Nov-19 18:00N 35°24' E 139°37'0 0.0
2017-Nov-19 17:30N 35°24' E 139°37'0 0.0
2017-Nov-19 17:00N 35°24' E 139°37'0 0.0
2017-Nov-19 16:30N 35°24' E 139°37'0 0.0
2017-Nov-19 16:00N 35°24' E 139°37'0 0.0
2017-Nov-19 15:30N 35°24' E 139°37'0 0.0
2017-Nov-19 15:00N 35°24' E 139°37'0 0.0
2017-Nov-19 14:30N 35°24' E 139°37'0 0.0
2017-Nov-19 14:00N 35°24' E 139°37'0 0.0
2017-Nov-19 13:30N 35°24' E 139°37'0 0.0
2017-Nov-19 13:00N 35°24' E 139°37'0 0.0
2017-Nov-19 12:30N 35°24' E 139°37'0 0.0
2017-Nov-19 12:00N 35°24' E 139°37'0 0.0
2017-Nov-19 11:30N 35°24' E 139°37'0 0.0
2017-Nov-19 11:00N 35°24' E 139°37'0 0.0
2017-Nov-19 10:30N 35°24' E 139°37'0 0.0
2017-Nov-19 10:00N 35°24' E 139°37'0 0.0
2017-Nov-19 09:30N 35°24' E 139°37'0 0.0
2017-Nov-19 09:00N 35°24' E 139°37'0 0.0
2017-Nov-19 08:30N 35°24' E 139°37'0 0.0
2017-Nov-19 08:00N 35°24' E 139°37'0 0.0
2017-Nov-19 07:30N 35°24' E 139°37'0 0.0
2017-Nov-19 07:00N 35°24' E 139°37'0 0.0
2017-Nov-19 06:30N 35°24' E 139°37'0 0.0
2017-Nov-19 06:00N 35°24' E 139°37'0 0.0
2017-Nov-19 05:30N 35°24' E 139°37'0 0.0
2017-Nov-19 05:00N 35°24' E 139°37'0 0.0
2017-Nov-19 04:30N 35°24' E 139°37'5 9.3
2017-Nov-19 04:00N 35°21' E 139°42'612.0
2017-Nov-19 03:30N 35°16' E 139°46'510.3
2017-Nov-19 03:00N 35°11' E 139°46'611.0
2017-Nov-19 02:30N 35°06' E 139°43'510.9
2017-Nov-19 02:00N 35°01' E 139°39'235 6.4
2017-Nov-17 13:12N 34°02' E 135°02'312.4
2017-Nov-17 12:58N 34°05' E 135°02'612.0
2017-Nov-17 12:30N 34°11' E 135°03'612.3
2017-Nov-17 12:00N 34°17' E 135°04'612.0
2017-Nov-17 11:30N 34°22' E 135°07'612.0
2017-Nov-17 11:00N 34°27' E 135°11'612.1
2017-Nov-17 10:30N 34°32' E 135°15'612.2
2017-Nov-17 10:00N 34°38' E 135°17'4 8.8
2017-Nov-17 09:30N 34°42' E 135°18'0 0.1
2017-Nov-17 09:00N 34°42' E 135°18'0 0.0
2017-Nov-17 08:30N 34°42' E 135°18'0 0.0
2017-Nov-17 08:00N 34°42' E 135°18'0 0.0
2017-Nov-17 07:30N 34°42' E 135°18'0 0.0
2017-Nov-17 07:00N 34°42' E 135°18'0 0.0
2017-Nov-17 06:30N 34°42' E 135°18'0 0.0
2017-Nov-17 06:00N 34°42' E 135°18'0 0.0
2017-Nov-17 05:30N 34°42' E 135°18'0 0.0
2017-Nov-17 05:00N 34°42' E 135°18'0 0.0
2017-Nov-17 04:30N 34°42' E 135°18'0 0.0
2017-Nov-17 04:00N 34°42' E 135°18'1 1.4
2017-Nov-17 03:30N 34°42' E 135°19'0 0.0
2017-Nov-17 03:00N 34°42' E 135°19'0 0.0
2017-Nov-17 02:30N 34°42' E 135°19'0 0.0
2017-Nov-17 02:00N 34°42' E 135°19'0 0.1
2017-Nov-17 01:30N 34°42' E 135°19'0 0.0
2017-Nov-17 01:00N 34°42' E 135°19'0 0.0
2017-Nov-17 00:30N 34°42' E 135°19'0 0.0
2017-Nov-17 00:00N 34°42' E 135°19'0 0.0
2017-Nov-16 23:30N 34°42' E 135°19'0 0.0
2017-Nov-16 23:00N 34°42' E 135°19'0 0.0
2017-Nov-16 22:30N 34°42' E 135°19'0 0.0
2017-Nov-16 22:00N 34°42' E 135°19'0 0.0
2017-Nov-16 21:30N 34°42' E 135°19'0 0.0
2017-Nov-16 21:00N 34°42' E 135°19'0 0.1
2017-Nov-16 20:30N 34°42' E 135°19'0 0.0
2017-Nov-16 20:00N 34°42' E 135°19'0 0.0
2017-Nov-16 19:30N 34°42' E 135°19'0 0.0
2017-Nov-16 19:00N 34°42' E 135°19'0 0.0
2017-Nov-16 18:30N 34°42' E 135°19'0 0.0
2017-Nov-16 18:00N 34°42' E 135°19'0 0.0
2017-Nov-16 17:30N 34°42' E 135°19'0 0.0
2017-Nov-16 17:00N 34°42' E 135°19'0 0.0
2017-Nov-16 16:30N 34°42' E 135°19'0 0.0
2017-Nov-16 16:00N 34°42' E 135°19'0 0.0
2017-Nov-16 15:30N 34°42' E 135°19'0 0.0
2017-Nov-16 15:00N 34°42' E 135°19'0 0.0
2017-Nov-16 14:30N 34°42' E 135°19'0 0.0
2017-Nov-16 14:00N 34°42' E 135°19'0 0.0
2017-Nov-16 13:30N 34°42' E 135°19'0 0.1
2017-Nov-16 13:00N 34°42' E 135°19'0 0.0
2017-Nov-16 12:30N 34°42' E 135°19'0 0.0
2017-Nov-16 12:00N 34°42' E 135°19'0 0.0
2017-Nov-16 11:29N 34°42' E 135°19'0 0.0
2017-Nov-16 11:00N 34°42' E 135°19'0 0.1
2017-Nov-16 10:30N 34°42' E 135°19'0 0.0
2017-Nov-16 10:00N 34°42' E 135°19'0 0.1
2017-Nov-16 09:30N 34°42' E 135°19'5 9.5
2017-Nov-16 09:00N 34°37' E 135°17'611.8
2017-Nov-16 08:30N 34°36' E 135°10'13 0.6
2017-Nov-15 11:18N 34°36' E 134°53'412.4
2017-Nov-15 11:00N 34°37' E 134°58'612.7
2017-Nov-15 10:31N 34°36' E 135°05'611.9
2017-Nov-15 10:00N 34°36' E 135°13'611.9
2017-Nov-15 09:30N 34°36' E 135°20'510.8
2017-Nov-15 09:00N 34°35' E 135°26'  
Track history (hours):
 
Tides and Currents Weather Stations Pressure Air Temp Water Temp Dewpoint Dewpoint Depression Visibility Wind Speed Wind Dir Waves Ship Positions

Kakusui Maru

Last reported at 2017-Nov-25 05:30 UTC. Time now 2017-Nov-25 05:55 UTC.
Position N 34°43' E 135°18'.

Length 64 m; draft 4 m.

Type: Tanker. MMSI: 431009016.

Date/timePositionNaut miles runAvg speedWind from/ knotsBaromVisibWave heightAir tempDewpointWater temp
2017-Nov-25 05:30N 34°43' E 135°18'0 0.0
2017-Nov-25 05:00N 34°43' E 135°18'0 0.0
2017-Nov-25 04:30N 34°43' E 135°18'0 0.0
2017-Nov-25 04:00N 34°43' E 135°18'0 0.0
2017-Nov-25 03:30N 34°43' E 135°18'0 0.0
2017-Nov-25 03:00N 34°43' E 135°18'1 1.4
2017-Nov-25 02:30N 34°42' E 135°18'611.2
2017-Nov-25 02:00N 34°37' E 135°18'611.8
2017-Nov-25 01:28N 34°31' E 135°14'1812.1
2017-Nov-25 00:01N 34°16' E 135°03'112.3
2017-Nov-24 23:57N 34°15' E 135°03'511.8
2017-Nov-24 23:30N 34°10' E 135°03'  
2017-Nov-20 00:30N 35°24' E 139°37'0 0.0
2017-Nov-20 00:00N 35°24' E 139°37'0 0.0
2017-Nov-19 23:30N 35°24' E 139°37'0 0.0
2017-Nov-19 23:00N 35°24' E 139°37'0 0.0
2017-Nov-19 22:30N 35°24' E 139°37'0 0.0
2017-Nov-19 22:00N 35°24' E 139°37'0 0.0
2017-Nov-19 21:30N 35°24' E 139°37'0 0.0
2017-Nov-19 21:00N 35°24' E 139°37'0 0.0
2017-Nov-19 20:30N 35°24' E 139°37'0 0.0
2017-Nov-19 20:00N 35°24' E 139°37'0 0.0
2017-Nov-19 19:30N 35°24' E 139°37'0 0.0
2017-Nov-19 19:00N 35°24' E 139°37'0 0.0
2017-Nov-19 18:30N 35°24' E 139°37'0 0.0
2017-Nov-19 18:00N 35°24' E 139°37'0 0.0
2017-Nov-19 17:30N 35°24' E 139°37'0 0.0
2017-Nov-19 17:00N 35°24' E 139°37'0 0.0
2017-Nov-19 16:30N 35°24' E 139°37'0 0.0
2017-Nov-19 16:00N 35°24' E 139°37'0 0.0
2017-Nov-19 15:30N 35°24' E 139°37'0 0.0
2017-Nov-19 15:00N 35°24' E 139°37'0 0.0
2017-Nov-19 14:30N 35°24' E 139°37'0 0.0
2017-Nov-19 14:00N 35°24' E 139°37'0 0.0
2017-Nov-19 13:30N 35°24' E 139°37'0 0.0
2017-Nov-19 13:00N 35°24' E 139°37'0 0.0
2017-Nov-19 12:30N 35°24' E 139°37'0 0.0
2017-Nov-19 12:00N 35°24' E 139°37'0 0.0
2017-Nov-19 11:30N 35°24' E 139°37'0 0.0
2017-Nov-19 11:00N 35°24' E 139°37'0 0.0
2017-Nov-19 10:30N 35°24' E 139°37'0 0.0
2017-Nov-19 10:00N 35°24' E 139°37'0 0.0
2017-Nov-19 09:30N 35°24' E 139°37'0 0.0
2017-Nov-19 09:00N 35°24' E 139°37'0 0.0
2017-Nov-19 08:30N 35°24' E 139°37'0 0.0
2017-Nov-19 08:00N 35°24' E 139°37'0 0.0
2017-Nov-19 07:30N 35°24' E 139°37'0 0.0
2017-Nov-19 07:00N 35°24' E 139°37'0 0.0
2017-Nov-19 06:30N 35°24' E 139°37'0 0.0
2017-Nov-19 06:00N 35°24' E 139°37'0 0.0
2017-Nov-19 05:30N 35°24' E 139°37'0 0.0
2017-Nov-19 05:00N 35°24' E 139°37'0 0.0
2017-Nov-19 04:30N 35°24' E 139°37'5 9.3
2017-Nov-19 04:00N 35°21' E 139°42'612.0
2017-Nov-19 03:30N 35°16' E 139°46'510.3
2017-Nov-19 03:00N 35°11' E 139°46'611.0
2017-Nov-19 02:30N 35°06' E 139°43'510.9
2017-Nov-19 02:00N 35°01' E 139°39'235 6.4
2017-Nov-17 13:12N 34°02' E 135°02'312.4
2017-Nov-17 12:58N 34°05' E 135°02'612.0
2017-Nov-17 12:30N 34°11' E 135°03'612.3
2017-Nov-17 12:00N 34°17' E 135°04'612.0
2017-Nov-17 11:30N 34°22' E 135°07'612.0
2017-Nov-17 11:00N 34°27' E 135°11'612.1
2017-Nov-17 10:30N 34°32' E 135°15'612.2
2017-Nov-17 10:00N 34°38' E 135°17'4 8.8
2017-Nov-17 09:30N 34°42' E 135°18'0 0.1
2017-Nov-17 09:00N 34°42' E 135°18'0 0.0
2017-Nov-17 08:30N 34°42' E 135°18'0 0.0
2017-Nov-17 08:00N 34°42' E 135°18'0 0.0
2017-Nov-17 07:30N 34°42' E 135°18'0 0.0
2017-Nov-17 07:00N 34°42' E 135°18'0 0.0
2017-Nov-17 06:30N 34°42' E 135°18'0 0.0
2017-Nov-17 06:00N 34°42' E 135°18'0 0.0
2017-Nov-17 05:30N 34°42' E 135°18'0 0.0
2017-Nov-17 05:00N 34°42' E 135°18'0 0.0
2017-Nov-17 04:30N 34°42' E 135°18'0 0.0
2017-Nov-17 04:00N 34°42' E 135°18'1 1.4
2017-Nov-17 03:30N 34°42' E 135°19'0 0.0
2017-Nov-17 03:00N 34°42' E 135°19'0 0.0
2017-Nov-17 02:30N 34°42' E 135°19'0 0.0
2017-Nov-17 02:00N 34°42' E 135°19'0 0.1
2017-Nov-17 01:30N 34°42' E 135°19'0 0.0
2017-Nov-17 01:00N 34°42' E 135°19'0 0.0
2017-Nov-17 00:30N 34°42' E 135°19'0 0.0
2017-Nov-17 00:00N 34°42' E 135°19'0 0.0
2017-Nov-16 23:30N 34°42' E 135°19'0 0.0
2017-Nov-16 23:00N 34°42' E 135°19'0 0.0
2017-Nov-16 22:30N 34°42' E 135°19'0 0.0
2017-Nov-16 22:00N 34°42' E 135°19'0 0.0
2017-Nov-16 21:30N 34°42' E 135°19'0 0.0
2017-Nov-16 21:00N 34°42' E 135°19'0 0.1
2017-Nov-16 20:30N 34°42' E 135°19'0 0.0
2017-Nov-16 20:00N 34°42' E 135°19'0 0.0
2017-Nov-16 19:30N 34°42' E 135°19'0 0.0
2017-Nov-16 19:00N 34°42' E 135°19'0 0.0
2017-Nov-16 18:30N 34°42' E 135°19'0 0.0
2017-Nov-16 18:00N 34°42' E 135°19'0 0.0
2017-Nov-16 17:30N 34°42' E 135°19'0 0.0
2017-Nov-16 17:00N 34°42' E 135°19'0 0.0
2017-Nov-16 16:30N 34°42' E 135°19'0 0.0
2017-Nov-16 16:00N 34°42' E 135°19'0 0.0
2017-Nov-16 15:30N 34°42' E 135°19'0 0.0
2017-Nov-16 15:00N 34°42' E 135°19'0 0.0
2017-Nov-16 14:30N 34°42' E 135°19'0 0.0
2017-Nov-16 14:00N 34°42' E 135°19'0 0.0
2017-Nov-16 13:30N 34°42' E 135°19'0 0.1
2017-Nov-16 13:00N 34°42' E 135°19'0 0.0
2017-Nov-16 12:30N 34°42' E 135°19'0 0.0
2017-Nov-16 12:00N 34°42' E 135°19'0 0.0
2017-Nov-16 11:29N 34°42' E 135°19'0 0.0
2017-Nov-16 11:00N 34°42' E 135°19'0 0.1
2017-Nov-16 10:30N 34°42' E 135°19'0 0.0
2017-Nov-16 10:00N 34°42' E 135°19'0 0.1
2017-Nov-16 09:30N 34°42' E 135°19'5 9.5
2017-Nov-16 09:00N 34°37' E 135°17'611.8
2017-Nov-16 08:30N 34°36' E 135°10'13 0.6
2017-Nov-15 11:18N 34°36' E 134°53'412.4
2017-Nov-15 11:00N 34°37' E 134°58'612.7
2017-Nov-15 10:31N 34°36' E 135°05'611.9
2017-Nov-15 10:00N 34°36' E 135°13'611.9
2017-Nov-15 09:30N 34°36' E 135°20'510.8
2017-Nov-15 09:00N 34°35' E 135°26'  

Dump ship's entire track history